sensor_id;sensor_type;location;lat;lon;timestamp;temperature;humidity
28532;DHT22;15738;44.860;10.066;2023-02-12T00:00:18;3.60;99.90
28532;DHT22;15738;44.860;10.066;2023-02-12T00:03:03;3.60;99.90
28532;DHT22;15738;44.860;10.066;2023-02-12T00:05:49;3.50;99.90
28532;DHT22;15738;44.860;10.066;2023-02-12T00:08:35;3.50;99.90
28532;DHT22;15738;44.860;10.066;2023-02-12T00:11:25;3.40;99.90
28532;DHT22;15738;44.860;10.066;2023-02-12T00:14:11;3.40;99.90
28532;DHT22;15738;44.860;10.066;2023-02-12T00:16:56;3.40;99.90
28532;DHT22;15738;44.860;10.066;2023-02-12T00:19:42;3.30;99.90
28532;DHT22;15738;44.860;10.066;2023-02-12T00:22:27;3.20;99.90
28532;DHT22;15738;44.860;10.066;2023-02-12T00:25:13;3.20;99.90
28532;DHT22;15738;44.860;10.066;2023-02-12T00:27:59;3.20;99.90
28532;DHT22;15738;44.860;10.066;2023-02-12T00:30:45;3.10;99.90
28532;DHT22;15738;44.860;10.066;2023-02-12T00:33:30;3.10;99.90
28532;DHT22;15738;44.860;10.066;2023-02-12T00:36:18;3.10;99.90
28532;DHT22;15738;44.860;10.066;2023-02-12T00:39:03;3.10;99.90
28532;DHT22;15738;44.860;10.066;2023-02-12T00:41:49;3.00;99.90
28532;DHT22;15738;44.860;10.066;2023-02-12T00:44:34;3.00;99.90
28532;DHT22;15738;44.860;10.066;2023-02-12T00:47:20;2.90;99.90
28532;DHT22;15738;44.860;10.066;2023-02-12T00:50:07;2.90;99.90
28532;DHT22;15738;44.860;10.066;2023-02-12T00:52:53;2.90;99.90
28532;DHT22;15738;44.860;10.066;2023-02-12T00:55:38;2.90;99.90
28532;DHT22;15738;44.860;10.066;2023-02-12T00:58:24;2.80;99.90
28532;DHT22;15738;44.860;10.066;2023-02-12T01:01:10;2.90;99.90
28532;DHT22;15738;44.860;10.066;2023-02-12T01:03:55;3.00;99.90
28532;DHT22;15738;44.860;10.066;2023-02-12T01:06:43;3.10;99.90
28532;DHT22;15738;44.860;10.066;2023-02-12T01:09:28;3.10;99.90
28532;DHT22;15738;44.860;10.066;2023-02-12T01:12:13;3.20;99.90
28532;DHT22;15738;44.860;10.066;2023-02-12T01:14:59;3.30;99.90
28532;DHT22;15738;44.860;10.066;2023-02-12T01:17:45;3.30;99.90
28532;DHT22;15738;44.860;10.066;2023-02-12T01:20:31;3.40;99.90
28532;DHT22;15738;44.860;10.066;2023-02-12T01:23:16;3.40;99.90
28532;DHT22;15738;44.860;10.066;2023-02-12T01:26:02;3.40;99.90
28532;DHT22;15738;44.860;10.066;2023-02-12T01:28:51;3.40;99.90
28532;DHT22;15738;44.860;10.066;2023-02-12T01:31:37;3.40;99.90
28532;DHT22;15738;44.860;10.066;2023-02-12T01:34:23;3.40;99.90
28532;DHT22;15738;44.860;10.066;2023-02-12T01:37:10;3.30;99.90
28532;DHT22;15738;44.860;10.066;2023-02-12T01:39:55;3.20;99.90
28532;DHT22;15738;44.860;10.066;2023-02-12T01:42:41;3.10;99.90
28532;DHT22;15738;44.860;10.066;2023-02-12T01:45:36;3.00;99.90
28532;DHT22;15738;44.860;10.066;2023-02-12T01:48:24;3.00;99.90
28532;DHT22;15738;44.860;10.066;2023-02-12T01:51:14;2.90;99.90
28532;DHT22;15738;44.860;10.066;2023-02-12T01:54:04;2.80;99.90
28532;DHT22;15738;44.860;10.066;2023-02-12T01:56:50;2.80;99.90
28532;DHT22;15738;44.860;10.066;2023-02-12T01:59:36;2.80;99.90
28532;DHT22;15738;44.860;10.066;2023-02-12T02:02:22;2.80;99.90
28532;DHT22;15738;44.860;10.066;2023-02-12T02:05:07;2.80;99.90
28532;DHT22;15738;44.860;10.066;2023-02-12T02:07:53;2.80;99.90
28532;DHT22;15738;44.860;10.066;2023-02-12T02:10:38;2.80;99.90
28532;DHT22;15738;44.860;10.066;2023-02-12T02:13:24;2.70;99.90
28532;DHT22;15738;44.860;10.066;2023-02-12T02:16:29;2.80;99.90
28532;DHT22;15738;44.860;10.066;2023-02-12T02:20:04;2.70;99.90
28532;DHT22;15738;44.860;10.066;2023-02-12T02:22:32;2.60;99.90
28532;DHT22;15738;44.860;10.066;2023-02-12T02:25:30;2.60;99.90
28532;DHT22;15738;44.860;10.066;2023-02-12T02:43:05;2.40;99.90
28532;DHT22;15738;44.860;10.066;2023-02-12T02:45:52;2.30;99.90
28532;DHT22;15738;44.860;10.066;2023-02-12T02:48:42;2.30;99.90
28532;DHT22;15738;44.860;10.066;2023-02-12T02:51:30;2.30;99.90
28532;DHT22;15738;44.860;10.066;2023-02-12T02:54:20;2.30;99.90
28532;DHT22;15738;44.860;10.066;2023-02-12T02:57:09;2.30;99.90
28532;DHT22;15738;44.860;10.066;2023-02-12T03:00:04;2.40;99.90
28532;DHT22;15738;44.860;10.066;2023-02-12T03:02:55;2.40;99.90
28532;DHT22;15738;44.860;10.066;2023-02-12T03:05:44;2.40;99.90
28532;DHT22;15738;44.860;10.066;2023-02-12T03:08:33;2.40;99.90
28532;DHT22;15738;44.860;10.066;2023-02-12T03:11:29;2.40;99.90
28532;DHT22;15738;44.860;10.066;2023-02-12T03:14:23;2.30;99.90
28532;DHT22;15738;44.860;10.066;2023-02-12T03:17:15;2.30;99.90
28532;DHT22;15738;44.860;10.066;2023-02-12T03:20:16;2.20;99.90
28532;DHT22;15738;44.860;10.066;2023-02-12T03:23:04;2.20;99.90
28532;DHT22;15738;44.860;10.066;2023-02-12T03:26:00;2.20;99.90
28532;DHT22;15738;44.860;10.066;2023-02-12T03:28:47;2.20;99.90
28532;DHT22;15738;44.860;10.066;2023-02-12T03:37:06;2.10;99.90
28532;DHT22;15738;44.860;10.066;2023-02-12T03:40:14;2.10;99.90
28532;DHT22;15738;44.860;10.066;2023-02-12T03:49:00;2.00;99.90
28532;DHT22;15738;44.860;10.066;2023-02-12T03:51:48;2.00;99.90
28532;DHT22;15738;44.860;10.066;2023-02-12T03:54:34;2.00;99.90
28532;DHT22;15738;44.860;10.066;2023-02-12T03:57:21;2.00;99.90
28532;DHT22;15738;44.860;10.066;2023-02-12T04:00:10;2.00;99.90
28532;DHT22;15738;44.860;10.066;2023-02-12T04:02:59;2.00;99.90
28532;DHT22;15738;44.860;10.066;2023-02-12T04:05:45;2.00;99.90
28532;DHT22;15738;44.860;10.066;2023-02-12T04:08:30;2.00;99.90
28532;DHT22;15738;44.860;10.066;2023-02-12T04:23:10;2.00;99.90
28532;DHT22;15738;44.860;10.066;2023-02-12T04:32:04;2.00;99.90
28532;DHT22;15738;44.860;10.066;2023-02-12T04:37:44;2.00;99.90
28532;DHT22;15738;44.860;10.066;2023-02-12T04:40:32;2.00;99.90
28532;DHT22;15738;44.860;10.066;2023-02-12T04:43:40;2.00;99.90
28532;DHT22;15738;44.860;10.066;2023-02-12T04:46:24;2.10;99.90
28532;DHT22;15738;44.860;10.066;2023-02-12T04:49:12;2.10;99.90
28532;DHT22;15738;44.860;10.066;2023-02-12T04:51:58;2.10;99.90
28532;DHT22;15738;44.860;10.066;2023-02-12T04:54:44;2.20;99.90
28532;DHT22;15738;44.860;10.066;2023-02-12T04:57:29;2.20;99.90
28532;DHT22;15738;44.860;10.066;2023-02-12T05:00:16;2.20;99.90
28532;DHT22;15738;44.860;10.066;2023-02-12T05:03:01;2.20;99.90
28532;DHT22;15738;44.860;10.066;2023-02-12T05:05:47;2.30;99.90
28532;DHT22;15738;44.860;10.066;2023-02-12T05:08:32;2.30;99.90
28532;DHT22;15738;44.860;10.066;2023-02-12T05:11:18;2.20;99.90
28532;DHT22;15738;44.860;10.066;2023-02-12T05:14:04;2.20;99.90
28532;DHT22;15738;44.860;10.066;2023-02-12T05:16:49;2.20;99.90
28532;DHT22;15738;44.860;10.066;2023-02-12T05:19:35;2.30;99.90
28532;DHT22;15738;44.860;10.066;2023-02-12T05:22:20;2.20;99.90
28532;DHT22;15738;44.860;10.066;2023-02-12T05:25:06;2.20;99.90
28532;DHT22;15738;44.860;10.066;2023-02-12T05:27:51;2.10;99.90
28532;DHT22;15738;44.860;10.066;2023-02-12T05:30:37;2.00;99.90
28532;DHT22;15738;44.860;10.066;2023-02-12T05:33:23;2.00;99.90
28532;DHT22;15738;44.860;10.066;2023-02-12T05:36:09;2.00;99.90
28532;DHT22;15738;44.860;10.066;2023-02-12T05:38:56;1.80;99.90
28532;DHT22;15738;44.860;10.066;2023-02-12T05:41:42;1.70;99.90
28532;DHT22;15738;44.860;10.066;2023-02-12T05:44:27;1.80;99.90
28532;DHT22;15738;44.860;10.066;2023-02-12T05:47:12;1.80;99.90
28532;DHT22;15738;44.860;10.066;2023-02-12T05:49:57;1.70;99.90
28532;DHT22;15738;44.860;10.066;2023-02-12T05:52:43;1.70;99.90
28532;DHT22;15738;44.860;10.066;2023-02-12T05:55:28;1.70;99.90
28532;DHT22;15738;44.860;10.066;2023-02-12T05:58:13;1.70;99.90
28532;DHT22;15738;44.860;10.066;2023-02-12T06:01:00;1.70;99.90
28532;DHT22;15738;44.860;10.066;2023-02-12T06:03:46;1.70;99.90
28532;DHT22;15738;44.860;10.066;2023-02-12T06:06:32;1.70;99.90
28532;DHT22;15738;44.860;10.066;2023-02-12T06:09:18;1.70;99.90
28532;DHT22;15738;44.860;10.066;2023-02-12T06:12:03;1.60;99.90
28532;DHT22;15738;44.860;10.066;2023-02-12T06:14:49;1.70;99.90
28532;DHT22;15738;44.860;10.066;2023-02-12T06:17:35;1.60;99.90
28532;DHT22;15738;44.860;10.066;2023-02-12T06:20:20;1.50;99.90
28532;DHT22;15738;44.860;10.066;2023-02-12T06:23:05;1.50;99.90
28532;DHT22;15738;44.860;10.066;2023-02-12T06:25:54;1.50;99.90
28532;DHT22;15738;44.860;10.066;2023-02-12T06:28:40;1.50;99.90
28532;DHT22;15738;44.860;10.066;2023-02-12T06:31:27;1.50;99.90
28532;DHT22;15738;44.860;10.066;2023-02-12T06:34:13;1.50;99.90
28532;DHT22;15738;44.860;10.066;2023-02-12T06:37:02;1.60;99.90
28532;DHT22;15738;44.860;10.066;2023-02-12T06:39:47;1.70;99.90
28532;DHT22;15738;44.860;10.066;2023-02-12T06:42:32;1.70;99.90
28532;DHT22;15738;44.860;10.066;2023-02-12T06:45:18;1.70;99.90
28532;DHT22;15738;44.860;10.066;2023-02-12T06:48:03;1.70;99.90
28532;DHT22;15738;44.860;10.066;2023-02-12T06:50:49;1.70;99.90
28532;DHT22;15738;44.860;10.066;2023-02-12T06:53:35;1.70;99.90
28532;DHT22;15738;44.860;10.066;2023-02-12T06:56:21;1.60;99.90
28532;DHT22;15738;44.860;10.066;2023-02-12T06:59:09;1.60;99.90
28532;DHT22;15738;44.860;10.066;2023-02-12T07:01:56;1.70;99.90
28532;DHT22;15738;44.860;10.066;2023-02-12T07:04:41;1.70;99.90
28532;DHT22;15738;44.860;10.066;2023-02-12T07:07:27;1.90;99.90
28532;DHT22;15738;44.860;10.066;2023-02-12T07:10:12;2.10;99.90
28532;DHT22;15738;44.860;10.066;2023-02-12T07:12:58;2.20;99.90
28532;DHT22;15738;44.860;10.066;2023-02-12T07:15:43;2.50;99.90
28532;DHT22;15738;44.860;10.066;2023-02-12T07:18:28;3.70;99.90
28532;DHT22;15738;44.860;10.066;2023-02-12T07:21:14;4.80;99.90
28532;DHT22;15738;44.860;10.066;2023-02-12T07:24:00;4.90;99.90
28532;DHT22;15738;44.860;10.066;2023-02-12T07:26:46;4.70;99.90
28532;DHT22;15738;44.860;10.066;2023-02-12T07:29:32;4.50;99.90
28532;DHT22;15738;44.860;10.066;2023-02-12T07:32:17;4.40;99.90
28532;DHT22;15738;44.860;10.066;2023-02-12T07:35:03;4.40;99.90
28532;DHT22;15738;44.860;10.066;2023-02-12T07:37:48;4.60;99.90
28532;DHT22;15738;44.860;10.066;2023-02-12T07:40:34;4.70;99.90
28532;DHT22;15738;44.860;10.066;2023-02-12T07:43:19;4.80;99.90
28532;DHT22;15738;44.860;10.066;2023-02-12T07:46:12;5.00;99.90
28532;DHT22;15738;44.860;10.066;2023-02-12T07:48:59;5.20;99.90
28532;DHT22;15738;44.860;10.066;2023-02-12T07:51:45;5.50;99.90
28532;DHT22;15738;44.860;10.066;2023-02-12T07:54:31;5.70;99.90
28532;DHT22;15738;44.860;10.066;2023-02-12T07:57:16;6.00;99.90
28532;DHT22;15738;44.860;10.066;2023-02-12T08:00:03;6.30;99.90
28532;DHT22;15738;44.860;10.066;2023-02-12T08:02:56;6.60;99.90
28532;DHT22;15738;44.860;10.066;2023-02-12T08:05:42;6.90;99.90
28532;DHT22;15738;44.860;10.066;2023-02-12T08:08:27;7.20;99.90
28532;DHT22;15738;44.860;10.066;2023-02-12T08:11:13;7.40;99.90
28532;DHT22;15738;44.860;10.066;2023-02-12T08:13:59;7.60;99.90
28532;DHT22;15738;44.860;10.066;2023-02-12T08:16:45;7.80;99.90
28532;DHT22;15738;44.860;10.066;2023-02-12T08:19:31;8.00;99.90
28532;DHT22;15738;44.860;10.066;2023-02-12T08:22:17;8.20;99.90
28532;DHT22;15738;44.860;10.066;2023-02-12T08:25:03;8.30;99.90
28532;DHT22;15738;44.860;10.066;2023-02-12T08:27:48;8.50;99.90
28532;DHT22;15738;44.860;10.066;2023-02-12T08:30:33;8.60;99.90
28532;DHT22;15738;44.860;10.066;2023-02-12T08:33:19;8.80;99.90
28532;DHT22;15738;44.860;10.066;2023-02-12T08:36:05;8.90;99.90
28532;DHT22;15738;44.860;10.066;2023-02-12T08:38:51;9.10;99.90
28532;DHT22;15738;44.860;10.066;2023-02-12T08:41:37;9.30;99.90
28532;DHT22;15738;44.860;10.066;2023-02-12T08:44:23;9.40;99.90
28532;DHT22;15738;44.860;10.066;2023-02-12T08:47:09;9.40;99.90
28532;DHT22;15738;44.860;10.066;2023-02-12T08:49:55;9.50;99.90
28532;DHT22;15738;44.860;10.066;2023-02-12T08:52:40;9.60;99.90
28532;DHT22;15738;44.860;10.066;2023-02-12T08:55:28;9.70;99.90
28532;DHT22;15738;44.860;10.066;2023-02-12T08:58:13;9.80;99.90
28532;DHT22;15738;44.860;10.066;2023-02-12T09:01:00;9.90;99.90
28532;DHT22;15738;44.860;10.066;2023-02-12T09:03:46;10.00;99.90
28532;DHT22;15738;44.860;10.066;2023-02-12T09:06:33;10.00;99.90
28532;DHT22;15738;44.860;10.066;2023-02-12T09:09:19;10.00;99.90
28532;DHT22;15738;44.860;10.066;2023-02-12T09:12:05;10.00;99.90
28532;DHT22;15738;44.860;10.066;2023-02-12T09:14:50;10.10;99.90
28532;DHT22;15738;44.860;10.066;2023-02-12T09:17:36;10.10;99.90
28532;DHT22;15738;44.860;10.066;2023-02-12T09:20:21;10.20;99.90
28532;DHT22;15738;44.860;10.066;2023-02-12T09:23:08;10.20;99.90
28532;DHT22;15738;44.860;10.066;2023-02-12T09:25:54;10.20;99.90
28532;DHT22;15738;44.860;10.066;2023-02-12T09:28:40;10.20;99.90
28532;DHT22;15738;44.860;10.066;2023-02-12T09:31:28;10.20;99.90
28532;DHT22;15738;44.860;10.066;2023-02-12T09:34:14;10.30;99.90
28532;DHT22;15738;44.860;10.066;2023-02-12T09:37:00;10.30;99.90
28532;DHT22;15738;44.860;10.066;2023-02-12T09:39:45;10.40;99.90
28532;DHT22;15738;44.860;10.066;2023-02-12T09:42:48;10.30;99.90
28532;DHT22;15738;44.860;10.066;2023-02-12T09:45:40;10.30;99.90
28532;DHT22;15738;44.860;10.066;2023-02-12T09:51:31;10.50;99.90
28532;DHT22;15738;44.860;10.066;2023-02-12T09:54:17;10.60;99.90
28532;DHT22;15738;44.860;10.066;2023-02-12T09:57:46;10.60;99.90
28532;DHT22;15738;44.860;10.066;2023-02-12T10:00:17;10.70;99.90
28532;DHT22;15738;44.860;10.066;2023-02-12T10:03:11;10.90;99.90
28532;DHT22;15738;44.860;10.066;2023-02-12T10:06:00;11.10;99.90
28532;DHT22;15738;44.860;10.066;2023-02-12T10:15:00;11.30;99.90
28532;DHT22;15738;44.860;10.066;2023-02-12T10:21:15;11.40;99.90
28532;DHT22;15738;44.860;10.066;2023-02-12T10:27:04;11.60;99.90
28532;DHT22;15738;44.860;10.066;2023-02-12T10:29:53;11.70;99.90
28532;DHT22;15738;44.860;10.066;2023-02-12T10:32:39;11.90;99.90
28532;DHT22;15738;44.860;10.066;2023-02-12T10:35:26;12.00;99.90
28532;DHT22;15738;44.860;10.066;2023-02-12T10:38:13;12.10;99.90
28532;DHT22;15738;44.860;10.066;2023-02-12T10:41:00;12.10;99.90
28532;DHT22;15738;44.860;10.066;2023-02-12T10:43:46;12.00;99.90
28532;DHT22;15738;44.860;10.066;2023-02-12T10:46:32;12.00;99.90
28532;DHT22;15738;44.860;10.066;2023-02-12T10:49:18;12.00;99.90
28532;DHT22;15738;44.860;10.066;2023-02-12T10:52:07;12.00;99.90
28532;DHT22;15738;44.860;10.066;2023-02-12T10:54:55;11.90;99.90
28532;DHT22;15738;44.860;10.066;2023-02-12T10:57:40;11.80;99.90
28532;DHT22;15738;44.860;10.066;2023-02-12T11:00:30;11.80;99.90
28532;DHT22;15738;44.860;10.066;2023-02-12T11:03:18;11.80;99.90
28532;DHT22;15738;44.860;10.066;2023-02-12T11:06:16;11.70;99.90
28532;DHT22;15738;44.860;10.066;2023-02-12T11:09:03;11.70;99.90
28532;DHT22;15738;44.860;10.066;2023-02-12T11:11:50;11.80;99.90
28532;DHT22;15738;44.860;10.066;2023-02-12T11:14:36;11.90;99.90
28532;DHT22;15738;44.860;10.066;2023-02-12T11:23:03;12.00;99.90
28532;DHT22;15738;44.860;10.066;2023-02-12T11:26:08;12.00;99.90
28532;DHT22;15738;44.860;10.066;2023-02-12T11:29:16;12.10;99.90
28532;DHT22;15738;44.860;10.066;2023-02-12T11:32:04;12.10;99.90
28532;DHT22;15738;44.860;10.066;2023-02-12T11:35:04;12.10;99.90
28532;DHT22;15738;44.860;10.066;2023-02-12T11:37:51;12.20;99.90
28532;DHT22;15738;44.860;10.066;2023-02-12T11:40:38;12.20;99.90
28532;DHT22;15738;44.860;10.066;2023-02-12T11:43:24;12.20;99.90
28532;DHT22;15738;44.860;10.066;2023-02-12T11:46:10;12.20;99.90
28532;DHT22;15738;44.860;10.066;2023-02-12T11:49:03;12.20;99.90
28532;DHT22;15738;44.860;10.066;2023-02-12T11:51:50;12.30;99.90
28532;DHT22;15738;44.860;10.066;2023-02-12T11:54:40;12.30;99.90
28532;DHT22;15738;44.860;10.066;2023-02-12T12:00:28;12.40;99.90
28532;DHT22;15738;44.860;10.066;2023-02-12T12:03:20;12.50;99.90
28532;DHT22;15738;44.860;10.066;2023-02-12T12:18:01;12.50;99.90
28532;DHT22;15738;44.860;10.066;2023-02-12T12:21:10;12.50;99.90
28532;DHT22;15738;44.860;10.066;2023-02-12T12:23:59;12.50;99.90
28532;DHT22;15738;44.860;10.066;2023-02-12T12:26:46;12.50;99.90
28532;DHT22;15738;44.860;10.066;2023-02-12T12:32:51;12.50;99.90
28532;DHT22;15738;44.860;10.066;2023-02-12T12:36:02;12.60;99.90
28532;DHT22;15738;44.860;10.066;2023-02-12T12:50:33;12.70;99.90
28532;DHT22;15738;44.860;10.066;2023-02-12T12:56:15;12.70;99.90
28532;DHT22;15738;44.860;10.066;2023-02-12T12:59:12;12.80;99.90
28532;DHT22;15738;44.860;10.066;2023-02-12T13:05:20;12.80;99.90
28532;DHT22;15738;44.860;10.066;2023-02-12T13:13:52;12.90;99.90
28532;DHT22;15738;44.860;10.066;2023-02-12T13:16:48;12.90;99.90
28532;DHT22;15738;44.860;10.066;2023-02-12T13:20:21;13.00;99.90
28532;DHT22;15738;44.860;10.066;2023-02-12T13:25:39;13.00;99.90
28532;DHT22;15738;44.860;10.066;2023-02-12T13:28:38;13.10;99.90
28532;DHT22;15738;44.860;10.066;2023-02-12T13:31:26;13.10;99.90
28532;DHT22;15738;44.860;10.066;2023-02-12T13:34:20;13.10;99.90
28532;DHT22;15738;44.860;10.066;2023-02-12T13:37:09;13.10;99.90
28532;DHT22;15738;44.860;10.066;2023-02-12T13:39:57;13.10;99.90
28532;DHT22;15738;44.860;10.066;2023-02-12T13:48:39;13.00;99.90
28532;DHT22;15738;44.860;10.066;2023-02-12T13:51:40;13.00;99.90
28532;DHT22;15738;44.860;10.066;2023-02-12T13:57:32;13.00;99.90
28532;DHT22;15738;44.860;10.066;2023-02-12T14:03:25;13.00;99.90
28532;DHT22;15738;44.860;10.066;2023-02-12T14:06:18;12.90;99.90
28532;DHT22;15738;44.860;10.066;2023-02-12T14:09:09;12.90;99.90
28532;DHT22;15738;44.860;10.066;2023-02-12T14:11:54;12.80;99.90
28532;DHT22;15738;44.860;10.066;2023-02-12T14:20:30;12.90;99.90
28532;DHT22;15738;44.860;10.066;2023-02-12T14:26:05;12.80;99.90
28532;DHT22;15738;44.860;10.066;2023-02-12T14:31:43;12.80;99.90
28532;DHT22;15738;44.860;10.066;2023-02-12T14:37:31;12.90;99.90
28532;DHT22;15738;44.860;10.066;2023-02-12T14:43:24;12.80;99.20
28532;DHT22;15738;44.860;10.066;2023-02-12T14:54:58;12.70;99.90
28532;DHT22;15738;44.860;10.066;2023-02-12T14:57:45;12.70;99.90
28532;DHT22;15738;44.860;10.066;2023-02-12T15:00:38;12.60;99.90
28532;DHT22;15738;44.860;10.066;2023-02-12T15:03:37;12.60;99.90
28532;DHT22;15738;44.860;10.066;2023-02-12T15:06:26;12.60;99.90
28532;DHT22;15738;44.860;10.066;2023-02-12T15:12:18;12.50;99.90
28532;DHT22;15738;44.860;10.066;2023-02-12T15:15:06;12.50;99.90
28532;DHT22;15738;44.860;10.066;2023-02-12T15:18:11;12.50;99.90
28532;DHT22;15738;44.860;10.066;2023-02-12T15:20:59;12.50;99.90
28532;DHT22;15738;44.860;10.066;2023-02-12T15:23:46;12.60;99.90
28532;DHT22;15738;44.860;10.066;2023-02-12T15:26:34;12.40;99.80
28532;DHT22;15738;44.860;10.066;2023-02-12T15:32:07;12.30;99.80
28532;DHT22;15738;44.860;10.066;2023-02-12T15:34:54;12.20;99.20
28532;DHT22;15738;44.860;10.066;2023-02-12T15:37:39;12.20;99.60
28532;DHT22;15738;44.860;10.066;2023-02-12T15:40:25;12.20;99.90
28532;DHT22;15738;44.860;10.066;2023-02-12T15:43:17;12.20;99.90
28532;DHT22;15738;44.860;10.066;2023-02-12T15:46:04;12.10;99.90
28532;DHT22;15738;44.860;10.066;2023-02-12T15:48:53;12.10;99.90
28532;DHT22;15738;44.860;10.066;2023-02-12T15:51:42;12.20;99.90
28532;DHT22;15738;44.860;10.066;2023-02-12T15:54:28;12.20;99.90
28532;DHT22;15738;44.860;10.066;2023-02-12T15:57:18;12.10;99.90
28532;DHT22;15738;44.860;10.066;2023-02-12T16:00:07;12.00;99.90
28532;DHT22;15738;44.860;10.066;2023-02-12T16:02:58;12.00;99.90
28532;DHT22;15738;44.860;10.066;2023-02-12T16:05:44;11.90;99.90
28532;DHT22;15738;44.860;10.066;2023-02-12T16:08:30;11.80;99.90
28532;DHT22;15738;44.860;10.066;2023-02-12T16:11:18;11.80;99.90
28532;DHT22;15738;44.860;10.066;2023-02-12T16:14:06;11.80;99.90
28532;DHT22;15738;44.860;10.066;2023-02-12T16:16:52;11.70;99.90
28532;DHT22;15738;44.860;10.066;2023-02-12T16:19:39;11.50;99.90
28532;DHT22;15738;44.860;10.066;2023-02-12T16:22:26;11.50;99.90
28532;DHT22;15738;44.860;10.066;2023-02-12T16:28:23;11.30;99.90
28532;DHT22;15738;44.860;10.066;2023-02-12T16:31:11;11.20;99.90
28532;DHT22;15738;44.860;10.066;2023-02-12T16:33:57;11.10;99.90
28532;DHT22;15738;44.860;10.066;2023-02-12T16:36:46;11.00;99.90
28532;DHT22;15738;44.860;10.066;2023-02-12T16:39:58;11.00;99.90
28532;DHT22;15738;44.860;10.066;2023-02-12T16:48:21;10.80;99.90
28532;DHT22;15738;44.860;10.066;2023-02-12T16:51:19;10.70;99.90
28532;DHT22;15738;44.860;10.066;2023-02-12T16:54:23;10.70;99.90
28532;DHT22;15738;44.860;10.066;2023-02-12T16:57:10;10.70;99.90
28532;DHT22;15738;44.860;10.066;2023-02-12T16:59:55;10.60;99.90
28532;DHT22;15738;44.860;10.066;2023-02-12T17:02:41;10.60;99.90
28532;DHT22;15738;44.860;10.066;2023-02-12T17:05:26;10.50;99.90
28532;DHT22;15738;44.860;10.066;2023-02-12T17:08:13;10.40;99.90
28532;DHT22;15738;44.860;10.066;2023-02-12T17:10:59;10.30;99.90
28532;DHT22;15738;44.860;10.066;2023-02-12T17:13:45;10.30;99.90
28532;DHT22;15738;44.860;10.066;2023-02-12T17:16:31;10.20;99.90
28532;DHT22;15738;44.860;10.066;2023-02-12T17:19:17;10.10;99.90
28532;DHT22;15738;44.860;10.066;2023-02-12T17:22:03;10.00;99.90
28532;DHT22;15738;44.860;10.066;2023-02-12T17:24:50;10.00;99.90
28532;DHT22;15738;44.860;10.066;2023-02-12T17:27:37;9.90;99.90
28532;DHT22;15738;44.860;10.066;2023-02-12T17:30:23;9.80;99.90
28532;DHT22;15738;44.860;10.066;2023-02-12T17:33:10;9.80;99.90
28532;DHT22;15738;44.860;10.066;2023-02-12T17:35:56;9.70;99.90
28532;DHT22;15738;44.860;10.066;2023-02-12T17:38:42;9.60;99.90
28532;DHT22;15738;44.860;10.066;2023-02-12T17:41:28;9.50;99.90
28532;DHT22;15738;44.860;10.066;2023-02-12T17:44:14;9.50;99.90
28532;DHT22;15738;44.860;10.066;2023-02-12T17:47:00;9.40;99.90
28532;DHT22;15738;44.860;10.066;2023-02-12T17:49:45;9.30;99.90
28532;DHT22;15738;44.860;10.066;2023-02-12T17:52:31;9.20;99.90
28532;DHT22;15738;44.860;10.066;2023-02-12T17:55:17;9.10;99.90
28532;DHT22;15738;44.860;10.066;2023-02-12T17:58:02;9.00;99.90
28532;DHT22;15738;44.860;10.066;2023-02-12T18:00:48;9.00;99.90
28532;DHT22;15738;44.860;10.066;2023-02-12T18:03:34;8.90;99.90
28532;DHT22;15738;44.860;10.066;2023-02-12T18:06:20;8.90;99.90
28532;DHT22;15738;44.860;10.066;2023-02-12T18:09:06;8.80;99.90
28532;DHT22;15738;44.860;10.066;2023-02-12T18:11:52;8.70;99.90
28532;DHT22;15738;44.860;10.066;2023-02-12T18:14:38;8.70;99.90
28532;DHT22;15738;44.860;10.066;2023-02-12T18:17:23;8.60;99.90
28532;DHT22;15738;44.860;10.066;2023-02-12T18:20:11;8.50;99.90
28532;DHT22;15738;44.860;10.066;2023-02-12T18:22:57;8.40;99.90
28532;DHT22;15738;44.860;10.066;2023-02-12T18:25:43;8.40;99.90
28532;DHT22;15738;44.860;10.066;2023-02-12T18:28:29;8.30;99.90
28532;DHT22;15738;44.860;10.066;2023-02-12T18:31:15;8.20;99.90
28532;DHT22;15738;44.860;10.066;2023-02-12T18:34:03;8.10;99.90
28532;DHT22;15738;44.860;10.066;2023-02-12T18:36:49;8.10;99.90
28532;DHT22;15738;44.860;10.066;2023-02-12T18:39:34;8.00;99.90
28532;DHT22;15738;44.860;10.066;2023-02-12T18:42:20;8.00;99.90
28532;DHT22;15738;44.860;10.066;2023-02-12T18:45:06;7.90;99.90
28532;DHT22;15738;44.860;10.066;2023-02-12T18:47:52;7.90;99.90
28532;DHT22;15738;44.860;10.066;2023-02-12T18:50:38;7.90;99.90
28532;DHT22;15738;44.860;10.066;2023-02-12T18:53:24;8.90;99.90
28532;DHT22;15738;44.860;10.066;2023-02-12T18:56:10;7.80;99.90
28532;DHT22;15738;44.860;10.066;2023-02-12T18:58:56;7.70;99.90
28532;DHT22;15738;44.860;10.066;2023-02-12T19:01:42;7.70;99.90
28532;DHT22;15738;44.860;10.066;2023-02-12T19:04:27;7.60;99.90
28532;DHT22;15738;44.860;10.066;2023-02-12T19:07:14;7.60;99.90
28532;DHT22;15738;44.860;10.066;2023-02-12T19:10:00;7.50;99.90
28532;DHT22;15738;44.860;10.066;2023-02-12T19:12:48;7.50;99.90
28532;DHT22;15738;44.860;10.066;2023-02-12T19:15:36;7.40;99.90
28532;DHT22;15738;44.860;10.066;2023-02-12T19:18:22;7.30;99.90
28532;DHT22;15738;44.860;10.066;2023-02-12T19:21:10;7.20;99.90
28532;DHT22;15738;44.860;10.066;2023-02-12T19:23:58;7.20;99.90
28532;DHT22;15738;44.860;10.066;2023-02-12T19:26:43;7.10;99.90
28532;DHT22;15738;44.860;10.066;2023-02-12T19:29:29;7.10;99.90
28532;DHT22;15738;44.860;10.066;2023-02-12T19:32:15;7.00;99.90
28532;DHT22;15738;44.860;10.066;2023-02-12T19:35:03;6.90;99.90
28532;DHT22;15738;44.860;10.066;2023-02-12T19:37:48;6.80;99.90
28532;DHT22;15738;44.860;10.066;2023-02-12T19:40:34;6.80;99.90
28532;DHT22;15738;44.860;10.066;2023-02-12T19:43:20;6.70;99.90
28532;DHT22;15738;44.860;10.066;2023-02-12T19:46:10;6.70;99.90
28532;DHT22;15738;44.860;10.066;2023-02-12T19:48:57;6.60;99.90
28532;DHT22;15738;44.860;10.066;2023-02-12T19:51:43;6.60;99.90
28532;DHT22;15738;44.860;10.066;2023-02-12T19:54:29;6.50;99.90
28532;DHT22;15738;44.860;10.066;2023-02-12T19:57:14;6.40;99.90
28532;DHT22;15738;44.860;10.066;2023-02-12T20:00:00;6.30;99.90
28532;DHT22;15738;44.860;10.066;2023-02-12T20:02:49;6.20;99.90
28532;DHT22;15738;44.860;10.066;2023-02-12T20:05:35;6.10;99.90
28532;DHT22;15738;44.860;10.066;2023-02-12T20:08:28;6.10;99.90
28532;DHT22;15738;44.860;10.066;2023-02-12T20:11:16;6.10;99.90
28532;DHT22;15738;44.860;10.066;2023-02-12T20:14:02;6.10;99.90
28532;DHT22;15738;44.860;10.066;2023-02-12T20:16:48;6.00;99.90
28532;DHT22;15738;44.860;10.066;2023-02-12T20:19:34;6.00;99.90